Time;durP1;ratioP1;P1;durP2;ratioP2;P2;SDS_P1;SDS_P2;PMS_P1;PMS_P2;Temp;Humidity;BMP_temperature;BMP_pressure;BME280_temperature;BME280_humidity;BME280_pressure;Samples;Min_cycle;Max_cycle;Signal;HPM_P1;HPM_P2
2023/10/22 00:01:27;;;;;;;7.00;1.23;;;;;;;;;;5055794;28;20204;-88
2023/10/22 00:03:55;;;;;;;4.17;1.10;;;;;;;;;;5055590;28;20202;-88
2023/10/22 00:06:22;;;;;;;6.83;1.50;;;;;;;;;;5056164;28;20261;-88
2023/10/22 00:08:50;;;;;;;5.23;1.10;;;;;;;;;;5055580;28;20568;-89
2023/10/22 00:11:17;;;;;;;7.10;1.30;;;;;;;;;;5055387;28;20200;-88
2023/10/22 00:13:46;;;;;;;4.80;1.50;;;;;;;;;;5055647;28;20211;-88
2023/10/22 00:16:13;;;;;;;6.00;1.60;;;;;;;;;;5055647;28;20191;-87
2023/10/22 00:18:41;;;;;;;4.77;1.57;;;;;;;;;;5054901;28;20224;-89
2023/10/22 00:21:09;;;;;;;6.70;1.70;;;;;;;;;;5054792;28;20210;-89
2023/10/22 00:23:36;;;;;;;4.90;1.43;;;;;;;;;;5054910;28;20196;-88
2023/10/22 00:26:03;;;;;;;6.13;1.40;;;;;;;;;;5055301;28;20204;-88
2023/10/22 00:28:31;;;;;;;6.30;1.30;;;;;;;;;;5055284;28;20644;-88
2023/10/22 00:30:59;;;;;;;4.10;1.10;;;;;;;;;;5055158;28;20203;-89
2023/10/22 00:33:29;;;;;;;7.47;1.07;;;;;;;;;;5055218;28;20230;-86
2023/10/22 00:35:58;;;;;;;6.33;1.10;;;;;;;;;;5055484;28;20206;-87
2023/10/22 00:38:26;;;;;;;6.53;1.27;;;;;;;;;;5054806;28;20306;-88
2023/10/22 00:40:53;;;;;;;7.23;1.20;;;;;;;;;;5054423;28;20196;-88
2023/10/22 00:43:24;;;;;;;4.63;1.00;;;;;;;;;;5055223;28;20261;-88
2023/10/22 00:45:51;;;;;;;5.40;0.93;;;;;;;;;;5054067;28;20235;-87
2023/10/22 00:48:20;;;;;;;5.67;1.20;;;;;;;;;;5055035;28;20246;-87
2023/10/22 00:50:48;;;;;;;5.20;0.80;;;;;;;;;;5054393;28;20238;-88
2023/10/22 00:53:17;;;;;;;3.37;0.77;;;;;;;;;;5054636;28;20211;-88
2023/10/22 00:55:48;;;;;;;6.90;1.10;;;;;;;;;;5054054;28;20883;-88
2023/10/22 00:58:17;;;;;;;3.33;0.90;;;;;;;;;;5054515;28;20708;-87
2023/10/22 01:00:45;;;;;;;8.47;1.43;;;;;;;;;;5054396;28;20709;-87
2023/10/22 01:03:13;;;;;;;3.83;0.97;;;;;;;;;;5054756;28;20206;-88
2023/10/22 01:05:41;;;;;;;7.20;1.20;;;;;;;;;;5054457;28;20250;-88
2023/10/22 01:08:10;;;;;;;5.70;1.23;;;;;;;;;;5053980;28;20648;-87
2023/10/22 01:10:37;;;;;;;6.30;1.03;;;;;;;;;;5054445;28;20215;-84
2023/10/22 01:13:06;;;;;;;6.83;1.20;;;;;;;;;;5053864;28;20192;-87
2023/10/22 01:15:33;;;;;;;7.47;1.27;;;;;;;;;;5050619;28;20201;-88
2023/10/22 01:18:00;;;;;;;7.63;1.53;;;;;;;;;;5039118;28;20217;-87
2023/10/22 01:20:27;;;;;;;4.00;1.00;;;;;;;;;;5053838;28;20219;-87
2023/10/22 01:22:56;;;;;;;7.27;1.30;;;;;;;;;;5053384;28;20241;-87
2023/10/22 01:25:24;;;;;;;3.87;1.07;;;;;;;;;;5053977;28;20672;-86
2023/10/22 01:27:52;;;;;;;4.93;1.43;;;;;;;;;;5053696;28;20634;-87
2023/10/22 01:30:19;;;;;;;5.20;1.10;;;;;;;;;;5053747;28;20199;-87
2023/10/22 01:32:46;;;;;;;4.03;1.03;;;;;;;;;;5054322;28;20200;-88
2023/10/22 01:35:17;;;;;;;8.80;1.10;;;;;;;;;;5054423;28;20235;-88
2023/10/22 01:37:44;;;;;;;6.70;1.20;;;;;;;;;;5052861;28;20683;-88
2023/10/22 01:40:12;;;;;;;5.00;1.00;;;;;;;;;;5053143;28;20262;-88
2023/10/22 01:42:41;;;;;;;3.23;1.07;;;;;;;;;;5054194;28;20195;-88
2023/10/22 01:45:09;;;;;;;4.47;1.00;;;;;;;;;;5053579;28;20565;-87
2023/10/22 01:47:36;;;;;;;5.77;1.10;;;;;;;;;;5053722;28;20671;-87
2023/10/22 01:50:04;;;;;;;6.43;1.30;;;;;;;;;;5054359;28;20196;-88
2023/10/22 01:52:31;;;;;;;4.50;1.10;;;;;;;;;;5053662;28;20227;-88
2023/10/22 01:54:59;;;;;;;5.97;1.20;;;;;;;;;;5053333;28;20246;-87
2023/10/22 01:57:26;;;;;;;5.20;1.03;;;;;;;;;;5053161;28;20278;-87
2023/10/22 01:59:55;;;;;;;6.80;1.30;;;;;;;;;;5053532;28;20276;-87
2023/10/22 02:02:22;;;;;;;7.20;1.30;;;;;;;;;;5053570;28;20214;-88
2023/10/22 02:04:49;;;;;;;8.67;1.30;;;;;;;;;;5053242;28;20254;-87
2023/10/22 02:07:16;;;;;;;3.83;1.10;;;;;;;;;;5052994;28;20204;-87
2023/10/22 02:09:44;;;;;;;6.77;1.30;;;;;;;;;;5053509;28;20207;-88
2023/10/22 02:12:11;;;;;;;5.17;1.30;;;;;;;;;;5053586;28;20203;-87
2023/10/22 02:14:38;;;;;;;6.23;1.10;;;;;;;;;;5053168;28;20652;-87
2023/10/22 02:17:07;;;;;;;5.83;1.30;;;;;;;;;;5053329;28;20204;-87
2023/10/22 02:19:35;;;;;;;7.23;1.50;;;;;;;;;;5046665;28;20228;-86
2023/10/22 02:22:05;;;;;;;8.87;1.30;;;;;;;;;;5050660;28;20207;-88
2023/10/22 02:24:32;;;;;;;3.87;1.10;;;;;;;;;;5052979;28;20238;-88
2023/10/22 02:27:09;;;;;;;5.93;0.93;;;;;;;;;;5052782;28;20212;-88
2023/10/22 02:29:37;;;;;;;4.87;1.20;;;;;;;;;;5052683;28;20195;-88
2023/10/22 02:32:05;;;;;;;4.57;1.03;;;;;;;;;;5053238;28;20565;-88
2023/10/22 02:34:33;;;;;;;7.83;1.70;;;;;;;;;;5053582;28;20199;-88
2023/10/22 02:37:01;;;;;;;4.70;0.80;;;;;;;;;;5052321;28;20737;-87
2023/10/22 02:39:28;;;;;;;3.80;0.80;;;;;;;;;;5052320;28;20719;-88
2023/10/22 02:41:55;;;;;;;5.73;1.27;;;;;;;;;;5053396;28;20200;-87
2023/10/22 02:44:23;;;;;;;8.07;1.17;;;;;;;;;;5053094;28;20262;-88
2023/10/22 02:46:50;;;;;;;6.77;1.30;;;;;;;;;;5052377;28;20727;-88
2023/10/22 02:49:17;;;;;;;5.13;0.83;;;;;;;;;;5052854;28;20631;-87
2023/10/22 02:51:46;;;;;;;6.50;1.50;;;;;;;;;;5052604;28;20420;-87
2023/10/22 02:54:13;;;;;;;6.73;1.17;;;;;;;;;;5053415;28;20622;-88
2023/10/22 02:56:41;;;;;;;8.03;1.50;;;;;;;;;;5053054;28;20200;-88
2023/10/22 02:59:08;;;;;;;6.70;1.63;;;;;;;;;;5052663;28;20223;-88
2023/10/22 03:01:35;;;;;;;5.40;1.00;;;;;;;;;;5052356;28;20715;-88
2023/10/22 03:04:03;;;;;;;7.43;1.07;;;;;;;;;;5052476;28;20226;-88
2023/10/22 03:06:30;;;;;;;7.60;1.13;;;;;;;;;;5052560;28;20658;-88
2023/10/22 03:08:58;;;;;;;5.70;1.17;;;;;;;;;;5052275;28;20260;-87
2023/10/22 03:11:26;;;;;;;6.37;1.10;;;;;;;;;;5052201;28;20208;-87
2023/10/22 03:13:53;;;;;;;8.20;1.20;;;;;;;;;;5052920;28;20656;-88
2023/10/22 03:16:20;;;;;;;6.70;1.30;;;;;;;;;;5052283;28;20245;-87
2023/10/22 03:18:48;;;;;;;6.37;1.20;;;;;;;;;;5051926;28;20779;-88
2023/10/22 03:21:17;;;;;;;11.47;1.93;;;;;;;;;;5052144;28;20303;-87
2023/10/22 03:23:44;;;;;;;5.13;1.20;;;;;;;;;;5052502;28;20290;-87
2023/10/22 03:26:15;;;;;;;10.13;1.20;;;;;;;;;;5052298;28;20255;-88
2023/10/22 03:28:43;;;;;;;9.90;1.57;;;;;;;;;;5052635;28;20567;-88
2023/10/22 03:31:10;;;;;;;10.77;1.47;;;;;;;;;;5052531;28;20196;-88
2023/10/22 03:33:37;;;;;;;8.47;1.40;;;;;;;;;;5051832;28;20200;-88
2023/10/22 03:36:05;;;;;;;6.90;1.47;;;;;;;;;;5052601;28;20278;-88
2023/10/22 03:38:33;;;;;;;6.67;1.20;;;;;;;;;;5052609;28;20618;-88
2023/10/22 03:41:01;;;;;;;7.70;1.50;;;;;;;;;;5054228;28;20238;-89
2023/10/22 03:43:30;;;;;;;10.90;1.60;;;;;;;;;;5056384;28;20208;-88
2023/10/22 03:45:58;;;;;;;7.50;1.43;;;;;;;;;;5055903;28;20240;-87
2023/10/22 03:48:25;;;;;;;6.40;1.47;;;;;;;;;;5056303;28;20539;-88
2023/10/22 03:50:52;;;;;;;10.90;1.47;;;;;;;;;;5055702;28;20200;-88
2023/10/22 03:53:21;;;;;;;12.10;1.80;;;;;;;;;;5056294;28;20247;-88
2023/10/22 03:55:49;;;;;;;7.53;1.83;;;;;;;;;;5055792;28;20196;-87
2023/10/22 03:58:16;;;;;;;6.50;1.43;;;;;;;;;;5055923;28;20234;-88
2023/10/22 04:00:45;;;;;;;9.23;1.60;;;;;;;;;;5055374;28;20243;-88
2023/10/22 04:03:12;;;;;;;11.67;1.80;;;;;;;;;;5054679;28;20249;-87
2023/10/22 04:05:39;;;;;;;9.07;1.53;;;;;;;;;;5055272;28;20258;-86
2023/10/22 04:08:07;;;;;;;12.53;1.93;;;;;;;;;;5055134;28;20207;-86
2023/10/22 04:10:35;;;;;;;11.30;1.70;;;;;;;;;;5055323;28;20208;-87
2023/10/22 04:13:04;;;;;;;11.60;1.53;;;;;;;;;;5055005;28;20204;-87
2023/10/22 04:15:31;;;;;;;10.53;2.13;;;;;;;;;;5055304;28;20200;-86
2023/10/22 04:18:00;;;;;;;11.03;1.90;;;;;;;;;;5055560;28;20200;-87
2023/10/22 04:20:27;;;;;;;18.73;1.80;;;;;;;;;;5055543;28;20255;-88
2023/10/22 04:22:54;;;;;;;10.23;1.50;;;;;;;;;;5055822;28;20543;-87
2023/10/22 04:25:21;;;;;;;11.20;1.70;;;;;;;;;;5055379;28;20608;-87
2023/10/22 04:27:49;;;;;;;10.00;2.13;;;;;;;;;;5055073;28;20188;-88
2023/10/22 04:30:16;;;;;;;12.17;1.67;;;;;;;;;;5055272;28;20200;-87
2023/10/22 04:32:43;;;;;;;8.83;1.77;;;;;;;;;;5054252;28;20204;-88
2023/10/22 04:35:12;;;;;;;7.37;1.43;;;;;;;;;;5054504;28;20651;-88
2023/10/22 04:37:39;;;;;;;10.17;1.80;;;;;;;;;;5054331;28;20266;-88
2023/10/22 04:40:08;;;;;;;9.40;1.80;;;;;;;;;;5054880;28;20239;-88
2023/10/22 04:42:35;;;;;;;11.87;1.70;;;;;;;;;;5055128;28;20648;-88
2023/10/22 04:45:02;;;;;;;12.87;1.60;;;;;;;;;;5054210;28;20208;-86
2023/10/22 04:47:29;;;;;;;9.17;2.03;;;;;;;;;;5053672;28;20715;-87
2023/10/22 04:49:57;;;;;;;13.33;2.13;;;;;;;;;;5054274;28;20202;-88
2023/10/22 04:52:31;;;;;;;11.83;1.97;;;;;;;;;;5053128;28;20660;-86
2023/10/22 04:54:58;;;;;;;9.93;1.77;;;;;;;;;;5054215;28;20661;-86
2023/10/22 04:57:26;;;;;;;13.60;1.87;;;;;;;;;;5054378;28;20192;-87
2023/10/22 04:59:53;;;;;;;13.00;2.00;;;;;;;;;;5054054;28;20219;-85
2023/10/22 05:02:20;;;;;;;13.67;2.00;;;;;;;;;;5053857;28;20192;-87
2023/10/22 05:04:48;;;;;;;13.30;2.23;;;;;;;;;;5054182;28;20210;-85
2023/10/22 05:07:15;;;;;;;16.43;2.00;;;;;;;;;;5053768;28;20281;-87
2023/10/22 05:09:46;;;;;;;12.73;2.10;;;;;;;;;;5053759;28;20829;-87
2023/10/22 05:12:13;;;;;;;14.10;1.90;;;;;;;;;;5054440;28;20199;-86
2023/10/22 05:14:41;;;;;;;12.13;1.80;;;;;;;;;;5053899;28;20254;-87
2023/10/22 05:17:08;;;;;;;8.10;1.60;;;;;;;;;;5053831;28;20250;-86
2023/10/22 05:19:35;;;;;;;13.13;1.83;;;;;;;;;;5053782;28;20223;-87
2023/10/22 05:22:04;;;;;;;16.33;1.90;;;;;;;;;;5054276;28;20261;-87
2023/10/22 05:24:32;;;;;;;15.23;2.10;;;;;;;;;;5053832;28;20551;-87
2023/10/22 05:27:00;;;;;;;9.70;1.83;;;;;;;;;;5053913;28;20254;-87
2023/10/22 05:29:28;;;;;;;10.53;1.93;;;;;;;;;;5053302;28;20200;-88
2023/10/22 05:31:55;;;;;;;19.83;1.90;;;;;;;;;;5053368;28;20266;-87
2023/10/22 05:34:23;;;;;;;19.47;2.10;;;;;;;;;;5053440;28;20290;-86
2023/10/22 05:36:50;;;;;;;13.67;2.37;;;;;;;;;;5054184;28;20192;-87
2023/10/22 05:39:17;;;;;;;15.57;3.00;;;;;;;;;;5053260;28;20253;-87
2023/10/22 05:41:44;;;;;;;15.17;2.77;;;;;;;;;;5053080;28;20196;-87
2023/10/22 05:44:13;;;;;;;12.87;2.73;;;;;;;;;;5053154;28;20231;-87
2023/10/22 05:46:41;;;;;;;10.37;3.30;;;;;;;;;;5052959;28;20316;-87
2023/10/22 05:49:10;;;;;;;14.33;3.10;;;;;;;;;;5053293;28;20214;-86
2023/10/22 05:51:38;;;;;;;15.13;3.17;;;;;;;;;;5052883;28;20207;-87
2023/10/22 05:54:06;;;;;;;16.23;2.67;;;;;;;;;;5053129;28;20196;-86
2023/10/22 05:56:33;;;;;;;11.00;2.43;;;;;;;;;;5053199;28;20200;-85
2023/10/22 05:59:04;;;;;;;14.07;2.23;;;;;;;;;;5053144;28;20199;-87
2023/10/22 06:01:33;;;;;;;18.60;2.67;;;;;;;;;;5052783;28;20239;-86
2023/10/22 06:04:00;;;;;;;13.33;3.00;;;;;;;;;;5052949;28;20214;-87
2023/10/22 06:06:27;;;;;;;16.43;2.97;;;;;;;;;;5053069;28;20199;-87
2023/10/22 06:08:54;;;;;;;16.90;3.20;;;;;;;;;;5052717;28;20196;-87
2023/10/22 06:11:22;;;;;;;16.43;3.73;;;;;;;;;;5052997;28;20258;-86
2023/10/22 06:13:49;;;;;;;17.70;3.70;;;;;;;;;;5052961;28;20196;-87
2023/10/22 06:16:16;;;;;;;15.20;3.50;;;;;;;;;;5052532;28;20200;-87
2023/10/22 06:18:45;;;;;;;21.83;2.83;;;;;;;;;;5052716;28;20195;-87
2023/10/22 06:21:13;;;;;;;14.87;3.40;;;;;;;;;;5052578;28;20252;-87
2023/10/22 06:23:40;;;;;;;13.67;3.20;;;;;;;;;;5053006;28;20243;-87
2023/10/22 06:26:10;;;;;;;20.07;3.30;;;;;;;;;;5052470;28;20251;-87
2023/10/22 06:28:37;;;;;;;14.33;2.87;;;;;;;;;;5052287;28;20204;-87
2023/10/22 06:31:05;;;;;;;15.10;2.70;;;;;;;;;;5053073;28;20199;-87
2023/10/22 06:33:33;;;;;;;17.73;2.70;;;;;;;;;;5052673;28;20615;-87
2023/10/22 06:36:11;;;;;;;20.23;2.70;;;;;;;;;;5052799;28;20210;-87
2023/10/22 06:38:38;;;;;;;12.37;2.27;;;;;;;;;;5052740;28;20227;-87
2023/10/22 06:41:06;;;;;;;15.63;2.77;;;;;;;;;;5052420;28;20236;-87
2023/10/22 06:43:33;;;;;;;16.67;2.40;;;;;;;;;;5052560;28;20235;-87
2023/10/22 06:46:00;;;;;;;13.20;2.50;;;;;;;;;;5052231;28;20957;-87
2023/10/22 06:48:29;;;;;;;20.93;2.90;;;;;;;;;;5052915;28;20288;-87
2023/10/22 06:50:57;;;;;;;13.37;2.97;;;;;;;;;;5053143;28;20196;-86
2023/10/22 06:53:25;;;;;;;14.93;3.40;;;;;;;;;;5052885;28;20203;-87
2023/10/22 06:55:53;;;;;;;21.07;3.67;;;;;;;;;;5052653;28;20196;-87
2023/10/22 06:58:20;;;;;;;15.40;3.10;;;;;;;;;;5051929;28;20656;-87
2023/10/22 07:00:47;;;;;;;20.47;3.70;;;;;;;;;;5052409;28;20304;-87
2023/10/22 07:03:14;;;;;;;16.27;4.00;;;;;;;;;;5052748;28;20623;-87
2023/10/22 07:05:42;;;;;;;15.63;4.00;;;;;;;;;;5052211;28;20226;-87
2023/10/22 07:08:09;;;;;;;20.67;3.70;;;;;;;;;;5052756;28;20301;-87
2023/10/22 07:10:38;;;;;;;15.87;3.40;;;;;;;;;;5052084;28;20207;-87
2023/10/22 07:13:05;;;;;;;19.00;3.27;;;;;;;;;;5051929;28;20619;-88
2023/10/22 07:15:32;;;;;;;20.93;3.03;;;;;;;;;;5053585;28;20200;-86
2023/10/22 07:17:59;;;;;;;14.57;3.10;;;;;;;;;;5056363;28;20258;-87
2023/10/22 07:20:27;;;;;;;17.93;3.67;;;;;;;;;;5058517;28;20220;-90
2023/10/22 07:22:54;;;;;;;16.33;3.60;;;;;;;;;;5057813;28;20207;-90
2023/10/22 07:25:21;;;;;;;14.50;3.13;;;;;;;;;;5056718;28;20202;-90
2023/10/22 07:27:50;;;;;;;15.13;4.27;;;;;;;;;;5056997;28;20196;-90
2023/10/22 07:30:18;;;;;;;11.60;4.40;;;;;;;;;;5056851;28;20196;-90
2023/10/22 07:32:45;;;;;;;11.33;3.57;;;;;;;;;;5056817;28;20282;-89
2023/10/22 07:35:14;;;;;;;10.73;3.37;;;;;;;;;;5057366;28;20204;-90
2023/10/22 07:37:44;;;;;;;14.13;3.17;;;;;;;;;;5056822;28;20200;-90
2023/10/22 07:40:13;;;;;;;14.87;3.13;;;;;;;;;;5056585;28;20200;-90
2023/10/22 07:42:40;;;;;;;14.40;3.30;;;;;;;;;;5057028;28;20219;-90
2023/10/22 07:45:10;;;;;;;11.07;2.80;;;;;;;;;;5056190;28;20196;-90
2023/10/22 07:47:38;;;;;;;12.07;2.63;;;;;;;;;;5056032;28;20623;-90
2023/10/22 07:50:06;;;;;;;9.10;2.17;;;;;;;;;;5057391;28;20196;-91
2023/10/22 07:52:34;;;;;;;11.77;2.70;;;;;;;;;;5056517;28;20200;-91
2023/10/22 07:55:02;;;;;;;14.50;2.55;;;;;;;;;;5055275;28;20200;-89
2023/10/22 07:57:32;;;;;;;13.93;2.40;;;;;;;;;;5056611;28;20200;-90
2023/10/22 07:59:59;;;;;;;9.63;2.38;;;;;;;;;;5056182;28;20202;-90
2023/10/22 08:02:32;;;;;;;9.93;2.25;;;;;;;;;;5056187;28;20227;-91
2023/10/22 08:05:00;;;;;;;10.43;2.65;;;;;;;;;;5055978;28;20204;-91
2023/10/22 08:07:29;;;;;;;9.98;2.90;;;;;;;;;;5056634;28;20612;-89
2023/10/22 08:09:59;;;;;;;8.50;2.45;;;;;;;;;;5056012;28;20203;-90
2023/10/22 08:12:28;;;;;;;10.52;2.90;;;;;;;;;;5055949;28;20632;-91
2023/10/22 08:15:01;;;;;;;9.10;2.58;;;;;;;;;;5055829;28;20203;-91
2023/10/22 08:17:30;;;;;;;7.45;2.28;;;;;;;;;;5055415;28;20216;-89
2023/10/22 08:19:57;;;;;;;8.27;2.20;;;;;;;;;;5052782;28;20204;-88
2023/10/22 08:22:24;;;;;;;12.27;2.65;;;;;;;;;;5055632;28;20219;-91
2023/10/22 08:24:52;;;;;;;10.43;2.72;;;;;;;;;;5055264;28;20660;-90
2023/10/22 08:27:21;;;;;;;9.25;2.60;;;;;;;;;;5054580;28;20200;-92
2023/10/22 08:29:48;;;;;;;9.73;2.40;;;;;;;;;;5035732;28;20630;-92
2023/10/22 08:32:15;;;;;;;7.50;2.00;;;;;;;;;;5036475;28;20258;-89
2023/10/22 08:34:50;;;;;;;8.07;2.70;;;;;;;;;;5034871;28;20223;-92
2023/10/22 08:37:18;;;;;;;9.30;2.30;;;;;;;;;;5048639;28;20584;-92
2023/10/22 08:39:45;;;;;;;10.82;2.08;;;;;;;;;;5053174;28;20204;-93
2023/10/22 08:42:16;;;;;;;7.97;2.20;;;;;;;;;;5054220;28;20975;-91
2023/10/22 08:44:46;;;;;;;8.63;2.58;;;;;;;;;;5053607;28;20200;-85
2023/10/22 08:47:13;;;;;;;6.78;1.98;;;;;;;;;;5049676;28;20231;-91
2023/10/22 08:49:50;;;;;;;7.15;1.92;;;;;;;;;;5050586;28;20203;-91
2023/10/22 08:52:20;;;;;;;11.10;2.40;;;;;;;;;;5050511;28;20775;-90
2023/10/22 08:54:52;;;;;;;8.90;2.10;;;;;;;;;;5053025;28;20767;-93
2023/10/22 08:57:38;;;;;;;7.35;2.20;;;;;;;;;;5053638;28;20267;-90
2023/10/22 09:03:15;;;;;;;7.65;1.80;;;;;;;;;;5025411;28;20207;-93
2023/10/22 09:05:43;;;;;;;7.72;2.15;;;;;;;;;;5051983;28;20208;-85
2023/10/22 09:08:11;;;;;;;9.10;2.45;;;;;;;;;;5044261;28;20200;-86
2023/10/22 09:10:39;;;;;;;7.80;2.22;;;;;;;;;;5050531;28;20258;-93
2023/10/22 09:13:16;;;;;;;7.38;1.88;;;;;;;;;;5051902;28;20200;-90
2023/10/22 09:15:44;;;;;;;10.73;2.30;;;;;;;;;;5051568;28;20227;-85
2023/10/22 09:18:11;;;;;;;7.00;2.50;;;;;;;;;;5052561;28;20310;-85
2023/10/22 09:20:39;;;;;;;8.55;2.30;;;;;;;;;;5052706;28;20656;-86
2023/10/22 09:23:15;;;;;;;5.40;1.95;;;;;;;;;;5053606;28;20207;-86
2023/10/22 09:25:42;;;;;;;6.95;2.25;;;;;;;;;;5055622;28;20251;-88
2023/10/22 09:28:14;;;;;;;7.30;2.38;;;;;;;;;;5051653;28;20208;-88
2023/10/22 09:30:41;;;;;;;8.05;2.13;;;;;;;;;;5053271;28;20965;-89
2023/10/22 09:33:09;;;;;;;9.23;1.90;;;;;;;;;;5053459;28;20200;-89
2023/10/22 09:35:36;;;;;;;7.20;1.90;;;;;;;;;;5058887;28;20199;-88
2023/10/22 09:38:04;;;;;;;7.63;1.90;;;;;;;;;;5060109;28;20852;-89
2023/10/22 09:40:34;;;;;;;6.78;2.20;;;;;;;;;;5064091;28;20223;-88
2023/10/22 09:43:02;;;;;;;7.85;1.85;;;;;;;;;;5055399;28;20811;-89
2023/10/22 09:45:31;;;;;;;7.95;1.90;;;;;;;;;;5053411;28;20223;-88
2023/10/22 09:47:59;;;;;;;5.82;1.65;;;;;;;;;;5052319;28;20628;-88
2023/10/22 09:50:28;;;;;;;6.18;2.00;;;;;;;;;;5052423;28;20675;-86
2023/10/22 09:52:57;;;;;;;9.20;2.50;;;;;;;;;;5057888;28;20187;-87
2023/10/22 09:55:25;;;;;;;6.05;1.55;;;;;;;;;;5054133;28;20282;-88
2023/10/22 09:57:53;;;;;;;6.78;1.73;;;;;;;;;;5052563;28;20201;-86
2023/10/22 10:00:21;;;;;;;8.10;2.13;;;;;;;;;;5060208;28;20249;-87
2023/10/22 10:02:49;;;;;;;9.90;1.90;;;;;;;;;;5062710;28;20231;-87
2023/10/22 10:05:18;;;;;;;7.90;2.00;;;;;;;;;;5054083;28;20737;-87
2023/10/22 10:07:45;;;;;;;6.57;1.80;;;;;;;;;;5055811;28;20195;-85
2023/10/22 10:10:13;;;;;;;6.47;1.60;;;;;;;;;;5052229;28;20647;-86
2023/10/22 10:12:42;;;;;;;7.13;1.77;;;;;;;;;;5053949;28;20227;-88
2023/10/22 10:15:31;;;;;;;7.05;1.90;;;;;;;;;;5055142;28;20188;-85
2023/10/22 10:18:00;;;;;;;5.15;1.65;;;;;;;;;;5052094;28;20325;-88
2023/10/22 10:20:30;;;;;;;6.18;1.48;;;;;;;;;;5051521;28;20279;-87
2023/10/22 10:23:04;;;;;;;7.57;1.60;;;;;;;;;;5056510;28;20231;-84
2023/10/22 10:25:32;;;;;;;5.15;1.42;;;;;;;;;;5051943;28;20248;-86
2023/10/22 10:28:03;;;;;;;6.40;1.80;;;;;;;;;;5052171;28;20227;-87
2023/10/22 10:30:32;;;;;;;6.55;1.90;;;;;;;;;;5052182;28;20238;-88
2023/10/22 10:32:59;;;;;;;4.78;1.95;;;;;;;;;;5051585;28;20196;-86
2023/10/22 10:35:28;;;;;;;7.85;1.80;;;;;;;;;;5052069;28;20199;-87
2023/10/22 10:38:14;;;;;;;7.85;2.00;;;;;;;;;;5052393;28;20295;-87
2023/10/22 10:40:42;;;;;;;5.85;1.33;;;;;;;;;;5049077;28;20273;-87
2023/10/22 10:43:09;;;;;;;6.80;1.73;;;;;;;;;;5051614;28;20254;-86
2023/10/22 10:45:41;;;;;;;6.05;1.73;;;;;;;;;;5051547;28;20243;-86
2023/10/22 10:48:08;;;;;;;7.35;1.48;;;;;;;;;;5051281;28;20218;-86
2023/10/22 10:50:35;;;;;;;5.70;1.50;;;;;;;;;;5050784;28;20207;-86
2023/10/22 10:53:03;;;;;;;5.53;1.58;;;;;;;;;;5051862;28;20291;-87
2023/10/22 10:55:33;;;;;;;5.65;1.67;;;;;;;;;;5051544;28;20675;-86
2023/10/22 10:58:01;;;;;;;7.22;1.60;;;;;;;;;;5051069;28;20356;-86
2023/10/22 11:00:30;;;;;;;7.93;1.52;;;;;;;;;;5051794;28;20208;-86
2023/10/22 11:03:00;;;;;;;9.98;2.45;;;;;;;;;;5050800;28;20318;-88
2023/10/22 11:05:31;;;;;;;8.18;1.80;;;;;;;;;;5051223;28;20200;-85
2023/10/22 11:07:59;;;;;;;8.43;1.88;;;;;;;;;;5051431;28;20207;-86
2023/10/22 11:10:29;;;;;;;7.50;1.70;;;;;;;;;;5051669;28;20275;-86
2023/10/22 11:13:02;;;;;;;7.60;1.20;;;;;;;;;;5057865;28;20286;-87
2023/10/22 11:15:32;;;;;;;4.25;1.08;;;;;;;;;;5046544;28;20234;-87
2023/10/22 11:18:03;;;;;;;5.47;1.20;;;;;;;;;;5050704;28;20247;-84
2023/10/22 11:20:31;;;;;;;8.18;1.58;;;;;;;;;;5050522;28;20211;-85
2023/10/22 11:22:58;;;;;;;7.30;1.33;;;;;;;;;;5050926;28;20259;-85
2023/10/22 11:25:26;;;;;;;7.93;1.40;;;;;;;;;;5051395;28;20227;-86
2023/10/22 11:27:54;;;;;;;5.80;1.40;;;;;;;;;;5050356;28;20253;-86
2023/10/22 11:30:34;;;;;;;5.13;1.30;;;;;;;;;;5051275;28;20250;-87
2023/10/22 11:33:03;;;;;;;5.82;1.38;;;;;;;;;;5051073;28;20196;-87
2023/10/22 11:35:31;;;;;;;7.13;1.52;;;;;;;;;;5051043;28;20238;-87
2023/10/22 11:37:58;;;;;;;5.13;1.15;;;;;;;;;;5050584;28;20207;-86
2023/10/22 11:40:28;;;;;;;5.13;1.10;;;;;;;;;;5042023;28;20242;-86
2023/10/22 11:42:55;;;;;;;6.00;1.55;;;;;;;;;;5050073;28;20246;-89
2023/10/22 11:45:23;;;;;;;5.25;1.35;;;;;;;;;;5051181;28;20717;-88
2023/10/22 11:47:50;;;;;;;5.70;1.45;;;;;;;;;;5050301;28;20196;-86
2023/10/22 11:50:19;;;;;;;4.93;1.33;;;;;;;;;;5051059;28;20208;-86
2023/10/22 11:52:53;;;;;;;5.85;1.45;;;;;;;;;;5049741;28;20246;-85
2023/10/22 11:55:20;;;;;;;4.45;1.63;;;;;;;;;;5050523;28;20660;-86
2023/10/22 11:57:47;;;;;;;12.35;2.40;;;;;;;;;;5048921;28;20199;-87
2023/10/22 12:00:15;;;;;;;3.80;1.30;;;;;;;;;;5055946;28;20200;-85
2023/10/22 12:02:42;;;;;;;8.65;1.33;;;;;;;;;;5053101;28;20234;-84
2023/10/22 12:05:11;;;;;;;7.07;1.38;;;;;;;;;;5050833;28;20196;-84
2023/10/22 12:07:40;;;;;;;7.40;1.60;;;;;;;;;;5050883;28;20303;-85
2023/10/22 12:10:08;;;;;;;5.85;1.33;;;;;;;;;;5047454;28;20207;-84
2023/10/22 12:12:35;;;;;;;7.03;1.30;;;;;;;;;;5051076;28;20200;-85
2023/10/22 12:15:04;;;;;;;4.53;1.05;;;;;;;;;;5051470;28;20254;-82
2023/10/22 12:17:43;;;;;;;7.30;1.20;;;;;;;;;;5052266;28;20207;-84
2023/10/22 12:20:26;;;;;;;6.47;1.40;;;;;;;;;;5051731;28;20210;-85
2023/10/22 12:22:55;;;;;;;7.35;1.58;;;;;;;;;;5049087;28;20223;-86
2023/10/22 12:25:22;;;;;;;5.32;0.80;;;;;;;;;;5053277;28;20196;-85
2023/10/22 12:27:51;;;;;;;5.13;1.20;;;;;;;;;;5034270;28;20262;-85
2023/10/22 12:30:18;;;;;;;3.55;1.00;;;;;;;;;;5051397;28;20230;-84
2023/10/22 12:32:46;;;;;;;5.00;1.20;;;;;;;;;;5052089;28;20577;-84
2023/10/22 12:35:14;;;;;;;4.53;0.90;;;;;;;;;;5051869;28;20199;-85
2023/10/22 12:37:41;;;;;;;6.60;1.13;;;;;;;;;;5051220;28;20284;-85
2023/10/22 12:40:11;;;;;;;5.43;1.10;;;;;;;;;;5050321;28;20714;-85
2023/10/22 12:42:47;;;;;;;4.65;1.25;;;;;;;;;;5051261;28;20306;-85
2023/10/22 12:45:14;;;;;;;5.75;1.20;;;;;;;;;;5047892;28;20195;-84
2023/10/22 12:47:43;;;;;;;6.72;1.20;;;;;;;;;;5052354;28;20196;-85
2023/10/22 12:50:13;;;;;;;4.32;0.90;;;;;;;;;;5050048;28;20568;-85
2023/10/22 12:52:42;;;;;;;4.63;0.90;;;;;;;;;;5051988;28;20196;-86
2023/10/22 12:55:20;;;;;;;4.35;0.82;;;;;;;;;;5048478;28;20200;-84
2023/10/22 12:57:47;;;;;;;3.30;1.00;;;;;;;;;;5049868;28;20200;-86
2023/10/22 13:00:15;;;;;;;2.95;0.85;;;;;;;;;;5049962;28;20227;-86
2023/10/22 13:02:42;;;;;;;4.60;1.30;;;;;;;;;;5051994;28;20281;-86
2023/10/22 13:05:10;;;;;;;5.10;1.35;;;;;;;;;;5048318;28;20206;-85
2023/10/22 13:07:37;;;;;;;5.10;0.90;;;;;;;;;;5051648;28;20200;-85
2023/10/22 13:10:05;;;;;;;4.68;1.00;;;;;;;;;;5050847;28;20262;-85
2023/10/22 13:12:35;;;;;;;8.18;1.30;;;;;;;;;;5049844;28;20242;-84
2023/10/22 13:15:02;;;;;;;4.47;0.80;;;;;;;;;;5050197;28;20196;-83
2023/10/22 13:17:30;;;;;;;3.47;0.90;;;;;;;;;;5052749;28;20283;-84
2023/10/22 13:19:59;;;;;;;6.53;1.05;;;;;;;;;;5052721;28;20661;-85
2023/10/22 13:22:26;;;;;;;8.13;1.40;;;;;;;;;;5052990;28;20288;-85
2023/10/22 13:24:55;;;;;;;5.30;1.20;;;;;;;;;;5052345;28;20208;-84
2023/10/22 13:27:22;;;;;;;4.18;0.98;;;;;;;;;;5052533;28;20192;-86
2023/10/22 13:29:51;;;;;;;5.80;1.33;;;;;;;;;;5051625;28;20788;-85
2023/10/22 13:32:18;;;;;;;6.88;0.98;;;;;;;;;;5052398;28;20184;-85
2023/10/22 13:34:46;;;;;;;6.35;1.00;;;;;;;;;;5051191;28;20192;-85
2023/10/22 13:37:13;;;;;;;4.68;1.00;;;;;;;;;;5051566;28;20608;-86
2023/10/22 13:39:40;;;;;;;5.65;1.10;;;;;;;;;;5051134;28;20253;-85
2023/10/22 13:42:07;;;;;;;7.32;1.15;;;;;;;;;;5051536;28;20229;-86
2023/10/22 13:44:35;;;;;;;4.00;1.05;;;;;;;;;;5050875;28;20223;-86
2023/10/22 13:47:04;;;;;;;9.18;1.58;;;;;;;;;;5050140;28;20670;-85
2023/10/22 13:49:31;;;;;;;7.18;1.40;;;;;;;;;;5050752;28;20212;-85
2023/10/22 13:51:58;;;;;;;6.65;1.02;;;;;;;;;;5051333;28;20660;-86
2023/10/22 13:54:25;;;;;;;4.25;1.10;;;;;;;;;;5050627;28;20247;-86
2023/10/22 13:56:52;;;;;;;6.22;1.35;;;;;;;;;;5049485;28;20287;-86
2023/10/22 13:59:20;;;;;;;5.05;1.10;;;;;;;;;;5051283;28;20608;-83
2023/10/22 14:01:48;;;;;;;6.72;1.40;;;;;;;;;;5050190;28;20196;-85
2023/10/22 14:04:16;;;;;;;7.32;1.40;;;;;;;;;;5047873;28;20255;-88
2023/10/22 14:06:45;;;;;;;7.47;1.50;;;;;;;;;;5044327;28;20234;-89
2023/10/22 14:09:12;;;;;;;4.65;0.95;;;;;;;;;;5048046;28;20231;-85
2023/10/22 14:11:41;;;;;;;6.50;1.27;;;;;;;;;;5047113;28;20743;-86
2023/10/22 14:14:08;;;;;;;4.88;1.27;;;;;;;;;;5047223;28;20700;-85
2023/10/22 14:16:36;;;;;;;6.28;1.30;;;;;;;;;;5050552;28;20620;-84
2023/10/22 14:19:03;;;;;;;3.80;1.25;;;;;;;;;;5050565;28;20299;-85
2023/10/22 14:21:31;;;;;;;6.15;1.30;;;;;;;;;;5047518;28;20199;-85
2023/10/22 14:23:59;;;;;;;4.53;1.10;;;;;;;;;;5047946;28;20224;-86
2023/10/22 14:26:26;;;;;;;5.72;1.20;;;;;;;;;;5050057;28;20274;-85
2023/10/22 14:28:53;;;;;;;4.97;1.17;;;;;;;;;;5051283;28;20230;-84
2023/10/22 14:31:20;;;;;;;3.30;0.88;;;;;;;;;;5051011;28;20344;-87
2023/10/22 14:33:48;;;;;;;3.97;1.00;;;;;;;;;;5051536;28;20227;-86
2023/10/22 14:36:15;;;;;;;4.78;1.00;;;;;;;;;;5050810;28;20671;-85
2023/10/22 14:38:43;;;;;;;7.22;1.08;;;;;;;;;;5051320;28;20258;-85
2023/10/22 14:41:11;;;;;;;4.53;1.10;;;;;;;;;;5050394;28;20200;-85
2023/10/22 14:43:38;;;;;;;4.03;0.90;;;;;;;;;;5051552;28;20318;-86
2023/10/22 14:46:05;;;;;;;3.10;0.93;;;;;;;;;;5050830;28;20748;-86
2023/10/22 14:48:33;;;;;;;4.78;1.15;;;;;;;;;;5051632;28;20215;-86